Extended Streamflow Prediction
Issued by NWS Lower Mississippi RFC

Home | Current Version | Previous Version | Text Only | Print | Product List | Glossary On
Versions: 1 2 3 4 5 6 7 8 9 10 11 12 13 14 15 16 17 18 19 20 21 22 23 24 25 26 27 28 29 30 31 32 33 34 35 36 37 38 39 40 41 42 43 44 45 46 47 48 49 50
382
FGUS64 KORN 271548
ESPORN

EXTENDED STREAMFLOW PREDICTION
NATIONAL WEATHER SERVICE RIVER FORECAST CENTER, SLIDELL, LA
1048 AM CDT MON MAR 27 2017

   DATE   CPGM7 CIRI2 NMDM7 TPTT1 CRTM7 OSGA4 MEMT1 TRPM6 HEEA4
03-28-17   18.1  24.5  14.8  18.0  17.4  11.4  11.7  22.8  19.1
03-29-17   19.0  24.0  13.6  16.9  16.4  10.6  11.2  22.6  19.1
03-30-17   19.5  25.0  13.9  16.7  15.9   9.8  10.5  21.9  18.7
03-31-17   20.1  26.2  14.9  17.6  16.4   9.8  10.0  21.3  18.0
04-01-17   20.6  27.2  16.2  18.7  17.3  10.7  10.5  21.2  17.6
04-02-17   20.7  27.7  17.0  19.9  18.3  11.8  11.5  22.1  18.0
04-03-17   20.6  28.2  17.6  20.4  19.1  12.9  12.6  23.0  18.9
04-04-17   20.4  28.2  17.9  20.9  19.6  13.5  13.4  24.1  19.9
04-05-17   20.1  27.1  17.6  20.9  19.9  14.1  13.9  24.6  20.7
04-06-17   19.6  25.1  16.1  20.1  19.6  14.2  14.3  25.1  21.2
04-07-17   19.1  23.3  14.4  18.4  18.3  13.3  14.0  25.3  21.6
04-08-17   18.8  21.7  12.9  16.9  16.8  11.6  12.7  24.5  21.3
04-09-17   18.5  20.2  11.5  15.5  15.4  10.1  11.1  23.0  20.1
04-10-17   18.1  19.2  10.3  14.2  14.2   8.7   9.8  21.6  18.7
04-11-17   17.8  18.6   9.3  13.2  13.1   7.4   8.5  20.4  17.5
04-12-17   17.4  18.1   8.4  12.4  12.2   6.4   7.5  19.3  16.4
04-13-17   17.1  17.5   7.8  11.6  11.5   5.6   6.5  18.4  15.4
04-14-17   16.7  16.9   7.4  11.2  10.9   4.9   5.8  17.6  14.6
04-15-17   16.4  16.5   7.2  10.9  10.6   4.5   5.3  17.0  14.0
04-16-17   16.1  16.3   6.9  10.6  10.4   4.2   5.0  16.6  13.5
04-17-17   15.7  16.1   6.7  10.4  10.2   4.0   4.8  16.4  13.3
04-18-17   15.4  16.0   6.6  10.2  10.0   3.8   4.6  16.2  13.1
04-19-17   15.0  15.8   6.4  10.1   9.9   3.7   4.5  16.1  13.0
04-20-17   14.7  15.6   6.3  10.0   9.8   3.6   4.4  16.0  12.8
04-21-17   14.3  15.4   6.2   9.9   9.7   3.5   4.3  15.9  12.8
04-22-17   14.0  15.3   6.1   9.8   9.6   3.5   4.2  15.9  12.7
04-23-17   13.7  15.1   5.9   9.6   9.5   3.4   4.2  15.8  12.7
04-24-17   13.3  14.9   5.7   9.5   9.3   3.2   4.1  15.8  12.6

   DATE   ARSA4 GEEM6 VCKM6 NTZM6 RRLL1 BTRL1 DONL1 RRVL1 NORL1
03-28-17   16.9  28.2  23.6  31.8  35.2  20.3  12.9   9.6   6.7
03-29-17   17.7  28.8  23.9  31.9  35.0  19.9  12.5   9.3   6.4
03-30-17   17.8  29.2  24.5  32.2  35.1  20.0  12.3   9.2   6.3
03-31-17   17.4  29.0  24.9  32.8  35.3  20.0  12.3   9.1   6.2
04-01-17   16.8  28.6  24.7  33.1  35.9  20.5  12.4   9.2   6.2
04-02-17   16.4  28.1  24.3  32.9  36.2  20.9  12.7   9.3   6.3
04-03-17   16.5  27.8  23.8  32.6  36.1  21.0  12.9   9.5   6.3
04-04-17   17.3  28.4  23.6  32.1  35.7  20.7  12.9   9.5   6.3
04-05-17   18.3  29.3  24.2  31.9  35.2  20.3  12.9   9.6   6.4
04-06-17   19.0  30.2  25.0  32.4  35.0  20.0  12.6   9.3   6.5
04-07-17   19.5  30.7  25.9  33.2  35.5  20.1  12.4   9.2   6.3
04-08-17   19.9  31.2  26.3  34.0  36.3  20.7  12.7   9.2   6.2
04-09-17   19.6  31.3  26.8  34.4  37.0  21.5  13.2   9.6   6.4
04-10-17   18.5  30.7  26.9  34.9  37.4  22.1  13.8   9.9   6.6
04-11-17   17.2  29.4  26.3  35.0  37.9  22.4  14.0  10.2   6.9
04-12-17   16.0  28.2  25.1  34.5  38.0  22.7  14.3  10.4   7.0
04-13-17   15.0  27.2  24.1  33.3  37.4  22.6  14.4  10.5   7.1
04-14-17   14.1  26.3  23.1  32.3  36.3  21.7  14.0  10.4   7.2
04-15-17   13.3  25.5  22.2  31.4  35.4  20.7  13.3  10.0   7.0
04-16-17   12.7  24.9  21.5  30.5  34.5  19.8  12.6   9.5   6.6
04-17-17   12.2  24.4  21.0  29.9  33.7  19.0  12.1   9.1   6.3
04-18-17   12.0  24.1  20.5  29.3  33.0  18.3  11.5   8.7   6.0
04-19-17   11.8  23.9  20.2  28.8  32.5  17.7  11.1   8.4   5.8
04-20-17   11.7  23.8  20.1  28.6  32.1  17.3  10.7   8.1   5.5
04-21-17   11.6  23.7  20.0  28.5  31.8  17.0  10.4   7.9   5.4
04-22-17   11.5  23.6  19.9  28.4  31.7  16.8  10.3   7.7   5.2
04-23-17   11.5  23.6  19.8  28.3  31.6  16.7  10.2   7.6   5.1
04-24-17   11.5  23.6  19.8  28.2  31.5  16.6  10.1   7.6   5.1

NOTE: STAGE FORECASTS ARE BASED ON FUTURE RAINFALL COVERING
THE NEXT 48 HOURS.

END ORN


$$





USA.gov is the U.S. government's official web portal to all federal, state and local government web resources and services.